createdAt,value
2018-04-27T00:01:52.124Z,54.13
2018-04-27T00:04:18.064Z,53.86
2018-04-27T00:06:44.027Z,53.95
2018-04-27T00:09:10.020Z,54.14
2018-04-27T00:11:35.980Z,54.35
2018-04-27T00:14:01.929Z,53.85
2018-04-27T00:16:27.883Z,54.13
2018-04-27T00:18:53.853Z,54.01
2018-04-27T00:21:19.799Z,53.86
2018-04-27T00:23:45.764Z,53.77
2018-04-27T00:26:11.712Z,54.95
2018-04-27T00:28:37.671Z,54.14
2018-04-27T00:31:03.640Z,54.31
2018-04-27T00:33:29.612Z,54.23
2018-04-27T00:35:55.643Z,54.38
2018-04-27T00:38:21.616Z,54.44
2018-04-27T00:40:47.560Z,54.72
2018-04-27T00:43:13.500Z,54.21
2018-04-27T00:45:39.452Z,53.64
2018-04-27T00:48:05.392Z,54.20
2018-04-27T00:50:31.359Z,54.20
2018-04-27T00:52:57.313Z,54.67
2018-04-27T00:55:23.252Z,54.58
2018-04-27T00:57:49.189Z,54.13
2018-04-27T01:00:15.135Z,54.12
2018-04-27T01:02:41.127Z,54.26
2018-04-27T01:05:07.087Z,53.86
2018-04-27T01:07:33.041Z,53.95
2018-04-27T01:09:58.975Z,54.12
2018-04-27T01:12:24.927Z,54.01
2018-04-27T01:14:50.863Z,54.19
2018-04-27T01:17:16.800Z,54.18
2018-04-27T01:19:42.742Z,53.75
2018-04-27T01:22:08.684Z,53.96
2018-04-27T01:24:34.624Z,53.88
2018-04-27T01:27:00.556Z,54.16
2018-04-27T01:29:26.512Z,54.36
2018-04-27T01:31:52.463Z,54.29
2018-04-27T01:34:18.414Z,53.95
2018-04-27T01:36:44.357Z,54.26
2018-04-27T01:39:10.301Z,53.74
2018-04-27T01:41:36.267Z,54.02
2018-04-27T01:44:02.208Z,53.99
2018-04-27T01:46:28.148Z,53.97
2018-04-27T01:48:54.092Z,54.35
2018-04-27T01:51:20.029Z,54.24
2018-04-27T01:53:45.973Z,53.88
2018-04-27T01:56:11.912Z,53.90
2018-04-27T01:58:37.856Z,54.17
2018-04-27T02:01:03.820Z,54.31
2018-04-27T02:03:29.774Z,54.51
2018-04-27T02:05:55.719Z,53.76
2018-04-27T02:08:21.663Z,53.63
2018-04-27T02:10:47.608Z,53.68
2018-04-27T02:13:13.556Z,53.44
2018-04-27T02:15:39.512Z,53.52
2018-04-27T02:18:05.447Z,53.68
2018-04-27T02:20:31.410Z,54.04
2018-04-27T02:22:57.339Z,53.75
2018-04-27T02:25:23.295Z,53.57
2018-04-27T02:27:49.263Z,54.17
2018-04-27T02:30:15.214Z,53.77
2018-04-27T02:32:41.157Z,53.90
2018-04-27T02:35:07.100Z,54.63
2018-04-27T02:37:33.072Z,53.85
2018-04-27T02:39:59.020Z,54.33
2018-04-27T02:42:24.977Z,54.10
2018-04-27T02:44:50.976Z,53.82
2018-04-27T02:47:16.924Z,53.85
2018-04-27T02:49:42.921Z,53.65
2018-04-27T02:52:08.859Z,53.82
2018-04-27T02:54:34.825Z,54.09
2018-04-27T02:57:00.768Z,53.60
2018-04-27T02:59:26.724Z,54.16
2018-04-27T03:01:52.693Z,53.72
2018-04-27T03:04:18.623Z,53.45
2018-04-27T03:06:44.578Z,53.40
2018-04-27T03:09:10.528Z,53.94
2018-04-27T03:11:36.453Z,53.84
2018-04-27T03:14:02.396Z,53.67
2018-04-27T03:16:28.345Z,53.88
2018-04-27T03:18:54.309Z,54.39
2018-04-27T03:21:20.259Z,53.78
2018-04-27T03:23:46.221Z,53.89
2018-04-27T03:26:12.197Z,53.66
2018-04-27T03:28:38.146Z,53.71
2018-04-27T03:31:04.092Z,53.96
2018-04-27T03:33:30.043Z,53.73
2018-04-27T03:35:55.987Z,53.99
2018-04-27T03:38:21.965Z,54.05
2018-04-27T03:40:47.903Z,53.57
2018-04-27T03:43:13.864Z,53.90
2018-04-27T03:45:39.805Z,54.25
2018-04-27T03:48:05.764Z,53.69
2018-04-27T03:50:31.707Z,53.29
2018-04-27T03:52:57.677Z,54.05
2018-04-27T03:55:23.616Z,53.99
2018-04-27T03:57:49.556Z,53.87
2018-04-27T04:00:15.496Z,53.74
2018-04-27T04:02:41.436Z,53.74
2018-04-27T04:05:07.397Z,53.82
2018-04-27T04:07:33.340Z,53.58
2018-04-27T04:09:59.310Z,55.21
2018-04-27T04:12:25.244Z,54.63
2018-04-27T04:14:51.204Z,53.94
2018-04-27T04:17:17.137Z,54.44
2018-04-27T04:19:43.090Z,54.09
2018-04-27T04:22:09.028Z,54.37
2018-04-27T04:24:34.975Z,54.15
2018-04-27T04:27:00.941Z,54.42
2018-04-27T04:29:26.899Z,54.13
2018-04-27T04:31:52.869Z,53.79
2018-04-27T04:34:18.803Z,54.21
2018-04-27T04:36:44.853Z,53.94
2018-04-27T04:39:10.796Z,54.38
2018-04-27T04:41:36.752Z,54.47
2018-04-27T04:44:02.755Z,54.11
2018-04-27T04:46:28.712Z,54.15
2018-04-27T04:48:54.676Z,54.06
2018-04-27T04:51:20.621Z,53.97
2018-04-27T04:53:46.567Z,54.03
2018-04-27T04:56:12.504Z,53.85
2018-04-27T04:58:38.469Z,54.01
2018-04-27T05:01:04.407Z,54.16
2018-04-27T05:03:30.348Z,54.21
2018-04-27T05:05:56.284Z,53.74
2018-04-27T05:08:22.315Z,54.02
2018-04-27T05:10:48.415Z,53.98
2018-04-27T05:13:14.266Z,53.85
2018-04-27T05:15:40.220Z,54.44
2018-04-27T05:18:06.197Z,53.64
2018-04-27T05:20:32.160Z,54.00
2018-04-27T05:22:58.112Z,53.88
2018-04-27T05:25:24.080Z,54.01
2018-04-27T05:27:50.040Z,53.93
2018-04-27T05:30:15.984Z,53.73
2018-04-27T05:32:42.048Z,53.69
2018-04-27T05:35:08.015Z,53.97
2018-04-27T05:37:33.975Z,54.01
2018-04-27T05:39:59.928Z,54.37
2018-04-27T05:42:25.859Z,54.35
2018-04-27T05:44:51.813Z,53.87
2018-04-27T05:47:17.756Z,54.00
2018-04-27T05:49:43.703Z,53.82
2018-04-27T05:52:09.648Z,53.59
2018-04-27T05:54:35.650Z,53.86
2018-04-27T05:57:01.597Z,53.80
2018-04-27T05:59:27.540Z,54.33
2018-04-27T06:01:53.500Z,53.88
2018-04-27T06:04:19.453Z,53.94
2018-04-27T06:06:45.397Z,53.79
2018-04-27T06:09:11.356Z,54.23
2018-04-27T06:11:37.311Z,54.02
2018-04-27T06:14:03.265Z,53.92
2018-04-27T06:16:29.212Z,53.85
2018-04-27T06:18:55.184Z,53.80
2018-04-27T06:21:21.146Z,54.24
2018-04-27T06:23:47.200Z,53.97
2018-04-27T06:26:13.168Z,54.10
2018-04-27T06:28:39.124Z,54.33
2018-04-27T06:31:05.060Z,53.93
2018-04-27T06:33:31.028Z,54.37
2018-04-27T06:35:56.971Z,54.05
2018-04-27T06:38:22.936Z,52.97
2018-04-27T06:40:48.845Z,51.10
2018-04-27T06:43:14.787Z,50.08
2018-04-27T06:45:40.776Z,51.21
2018-04-27T06:48:06.813Z,51.45
2018-04-27T06:50:32.843Z,52.05
2018-04-27T06:52:58.877Z,52.14
2018-04-27T06:55:24.835Z,52.57
2018-04-27T06:57:50.831Z,52.55
2018-04-27T07:00:16.792Z,52.84
2018-04-27T07:02:42.781Z,52.89
2018-04-27T07:05:08.804Z,53.11
2018-04-27T07:07:34.696Z,53.14
2018-04-27T07:10:00.644Z,53.11
2018-04-27T07:12:26.601Z,53.63
2018-04-27T07:14:52.544Z,53.23
2018-04-27T07:17:18.527Z,53.83
2018-04-27T07:19:44.473Z,53.37
2018-04-27T07:22:10.432Z,53.47
2018-04-27T07:24:36.373Z,53.65
2018-04-27T07:27:02.360Z,53.60
2018-04-27T07:29:28.296Z,53.09
2018-04-27T07:31:54.263Z,53.35
2018-04-27T07:34:20.271Z,53.05
2018-04-27T07:36:46.216Z,52.78
2018-04-27T07:39:12.163Z,52.85
2018-04-27T07:41:38.116Z,53.03
2018-04-27T07:44:04.068Z,53.00
2018-04-27T07:46:30.022Z,52.41
2018-04-27T07:48:56.035Z,51.75
2018-04-27T07:51:21.992Z,52.46
2018-04-27T07:53:47.951Z,53.39
2018-04-27T07:56:13.956Z,53.01
2018-04-27T07:58:39.904Z,52.78
2018-04-27T08:01:05.854Z,52.89
2018-04-27T08:03:31.865Z,53.00
2018-04-27T08:05:57.832Z,53.68
2018-04-27T08:08:23.779Z,53.75
2018-04-27T08:10:49.733Z,53.46
2018-04-27T08:13:15.699Z,53.68
2018-04-27T08:15:41.644Z,53.31
2018-04-27T08:18:07.600Z,53.65
2018-04-27T08:20:33.574Z,53.01
2018-04-27T08:22:59.507Z,51.74
2018-04-27T08:25:25.476Z,52.45
2018-04-27T08:27:51.421Z,52.36
2018-04-27T08:30:17.379Z,52.69
2018-04-27T08:32:43.341Z,53.07
2018-04-27T08:35:09.289Z,53.41
2018-04-27T08:37:35.264Z,53.26
2018-04-27T08:40:01.219Z,52.99
2018-04-27T08:42:27.191Z,53.61
2018-04-27T08:44:53.123Z,53.19
2018-04-27T08:47:19.073Z,53.05
2018-04-27T08:49:45.016Z,52.99
2018-04-27T08:52:10.960Z,53.08
2018-04-27T08:54:36.959Z,53.06
2018-04-27T08:57:02.903Z,53.25
2018-04-27T08:59:28.856Z,53.40
2018-04-27T09:01:54.811Z,53.12
2018-04-27T09:04:20.780Z,53.06
2018-04-27T09:06:46.738Z,53.27
2018-04-27T09:09:12.692Z,53.01
2018-04-27T09:11:38.676Z,52.88
2018-04-27T09:14:04.626Z,52.65
2018-04-27T09:16:30.576Z,53.24
2018-04-27T09:18:56.535Z,53.50
2018-04-27T09:21:22.479Z,52.91
2018-04-27T09:23:48.420Z,53.14
2018-04-27T09:26:14.380Z,53.26
2018-04-27T09:28:40.331Z,55.13
2018-04-27T09:31:06.289Z,52.57
2018-04-27T09:33:32.256Z,52.98
2018-04-27T09:35:58.201Z,52.88
2018-04-27T09:38:24.144Z,53.47
2018-04-27T09:40:50.090Z,53.19
2018-04-27T09:43:16.049Z,53.14
2018-04-27T09:45:41.996Z,53.74
2018-04-27T09:48:07.961Z,54.09
2018-04-27T09:50:33.919Z,52.16
2018-04-27T09:52:59.860Z,51.53
2018-04-27T09:55:25.827Z,52.53
2018-04-27T09:57:51.766Z,52.49
2018-04-27T10:00:17.713Z,53.00
2018-04-27T10:02:43.668Z,52.60
2018-04-27T10:05:09.604Z,52.79
2018-04-27T10:07:35.549Z,52.86
2018-04-27T10:10:01.536Z,53.53
2018-04-27T10:12:27.502Z,52.75
2018-04-27T10:14:53.431Z,52.98
2018-04-27T10:17:19.411Z,53.13
2018-04-27T10:19:45.365Z,52.87
2018-04-27T10:22:11.320Z,53.50
2018-04-27T10:24:37.300Z,53.01
2018-04-27T10:27:03.287Z,53.09
2018-04-27T10:29:29.247Z,52.78
2018-04-27T10:31:55.196Z,53.07
2018-04-27T10:34:21.171Z,52.95
2018-04-27T10:36:47.104Z,53.06
2018-04-27T10:39:13.063Z,52.93
2018-04-27T10:41:38.995Z,53.44
2018-04-27T10:44:04.944Z,53.33
2018-04-27T10:46:30.901Z,53.14
2018-04-27T10:48:56.842Z,53.11
2018-04-27T10:51:22.815Z,52.98
2018-04-27T10:53:48.756Z,53.29
2018-04-27T10:56:14.732Z,53.40
2018-04-27T10:58:40.675Z,54.07
2018-04-27T11:01:06.624Z,53.57
2018-04-27T11:03:32.608Z,53.34
2018-04-27T11:05:58.547Z,53.31
2018-04-27T11:08:24.516Z,53.36
2018-04-27T11:10:50.499Z,53.08
2018-04-27T11:13:16.493Z,53.04
2018-04-27T11:15:42.440Z,52.98
2018-04-27T11:18:08.396Z,53.25
2018-04-27T11:20:34.337Z,53.46
2018-04-27T11:23:00.304Z,53.24
2018-04-27T11:25:26.259Z,53.32
2018-04-27T11:27:52.277Z,53.49
2018-04-27T11:30:18.222Z,53.12
2018-04-27T11:32:44.163Z,53.17
2018-04-27T11:35:10.111Z,53.96
2018-04-27T11:37:36.085Z,53.29
2018-04-27T11:40:02.109Z,53.39
2018-04-27T11:42:28.000Z,53.84
2018-04-27T11:44:53.946Z,53.42
2018-04-27T11:47:19.896Z,53.51
2018-04-27T11:49:45.840Z,53.84
2018-04-27T11:52:11.779Z,53.32
2018-04-27T11:54:37.753Z,53.73
2018-04-27T11:57:03.692Z,53.88
2018-04-27T11:59:29.649Z,53.02
2018-04-27T12:01:55.597Z,53.96
2018-04-27T12:04:21.608Z,54.17
2018-04-27T12:06:47.572Z,53.11
2018-04-27T12:09:13.512Z,50.93
2018-04-27T12:11:39.556Z,52.12
2018-04-27T12:14:05.492Z,49.91
2018-04-27T12:16:31.439Z,49.47
2018-04-27T12:18:57.439Z,51.36
2018-04-27T12:21:23.367Z,49.87
2018-04-27T12:23:49.308Z,50.01
2018-04-27T12:26:15.253Z,50.92
2018-04-27T12:28:41.207Z,48.47
2018-04-27T12:31:07.233Z,50.03
2018-04-27T12:33:33.112Z,50.10
2018-04-27T12:35:59.063Z,50.75
2018-04-27T12:38:25.031Z,50.07
2018-04-27T12:40:51.012Z,49.11
2018-04-27T12:43:16.953Z,51.02
2018-04-27T12:45:42.981Z,48.47
2018-04-27T12:48:08.923Z,49.04
2018-04-27T12:50:34.868Z,47.86
2018-04-27T12:53:00.820Z,47.25
2018-04-27T12:55:26.760Z,46.94
2018-04-27T12:57:52.700Z,48.83
2018-04-27T13:00:18.649Z,48.32
2018-04-27T13:02:44.598Z,49.50
2018-04-27T13:05:10.536Z,47.53
2018-04-27T13:07:36.495Z,48.33
2018-04-27T13:10:02.444Z,48.34
2018-04-27T13:12:28.453Z,48.76
2018-04-27T13:14:54.396Z,48.92
2018-04-27T13:17:20.369Z,49.93
2018-04-27T13:19:46.321Z,48.78
2018-04-27T13:22:12.272Z,47.79
2018-04-27T13:24:38.228Z,50.64
2018-04-27T13:27:04.200Z,51.67
2018-04-27T13:29:30.145Z,49.51
2018-04-27T13:31:56.115Z,48.95
2018-04-27T13:34:22.157Z,49.13
2018-04-27T13:36:48.040Z,49.87
2018-04-27T13:39:13.990Z,50.30
2018-04-27T13:41:40.032Z,50.31
2018-04-27T13:44:05.972Z,50.79
2018-04-27T13:46:31.924Z,50.28
2018-04-27T13:48:57.898Z,50.21
2018-04-27T13:51:23.835Z,50.83
2018-04-27T13:53:49.810Z,50.44
2018-04-27T13:56:15.757Z,51.33
2018-04-27T13:58:41.775Z,50.64
2018-04-27T14:01:07.736Z,50.83
2018-04-27T14:03:33.680Z,51.09
2018-04-27T14:05:59.644Z,51.03
2018-04-27T14:08:25.593Z,52.28
2018-04-27T14:10:51.637Z,51.36
2018-04-27T14:13:17.731Z,51.20
2018-04-27T14:15:43.699Z,51.18
2018-04-27T14:18:09.840Z,51.52
2018-04-27T14:20:35.815Z,52.48
2018-04-27T14:23:01.774Z,52.39
2018-04-27T14:25:27.797Z,52.22
2018-04-27T14:27:53.780Z,51.71
2018-04-27T14:30:19.716Z,52.15
2018-04-27T14:32:45.681Z,51.51
2018-04-27T14:35:11.703Z,52.37
2018-04-27T14:37:37.641Z,51.65
2018-04-27T14:40:03.614Z,52.02
2018-04-27T14:42:29.600Z,51.61
2018-04-27T14:44:55.544Z,51.85
2018-04-27T14:47:21.504Z,52.22
2018-04-27T14:49:47.583Z,52.16
2018-04-27T14:52:13.611Z,52.07
2018-04-27T14:54:39.577Z,52.31
2018-04-27T14:57:05.511Z,52.25
2018-04-27T14:59:31.459Z,52.51
2018-04-27T15:01:57.416Z,53.08
2018-04-27T15:04:23.376Z,53.19
2018-04-27T15:06:49.328Z,52.67
2018-04-27T15:09:15.402Z,53.01
2018-04-27T15:11:41.443Z,52.83
2018-04-27T15:14:07.383Z,53.10
2018-04-27T15:16:33.345Z,53.02
2018-04-27T15:18:59.284Z,52.59
2018-04-27T15:21:25.226Z,52.72
2018-04-27T15:23:51.178Z,53.32
2018-04-27T15:26:17.205Z,53.00
2018-04-27T15:28:43.207Z,52.85
2018-04-27T15:31:09.148Z,53.19
2018-04-27T15:33:35.095Z,53.57
2018-04-27T15:36:01.036Z,53.31
2018-04-27T15:38:27.044Z,53.09
2018-04-27T15:40:53.000Z,52.94
2018-04-27T15:43:18.968Z,52.89
2018-04-27T15:45:44.980Z,53.01
2018-04-27T15:48:11.045Z,53.26
2018-04-27T15:50:37.075Z,53.42
2018-04-27T15:53:03.104Z,53.29
2018-04-27T15:55:29.068Z,53.41
2018-04-27T15:57:55.087Z,53.11
2018-04-27T16:00:21.060Z,53.02
2018-04-27T16:02:47.000Z,53.07
2018-04-27T16:05:12.980Z,52.84
2018-04-27T16:07:38.921Z,53.12
2018-04-27T16:10:04.873Z,53.13
2018-04-27T16:12:30.831Z,52.51
2018-04-27T16:14:56.807Z,53.23
2018-04-27T16:17:22.718Z,53.86
2018-04-27T16:19:48.704Z,55.84
2018-04-27T16:22:14.672Z,54.56
2018-04-27T16:24:40.612Z,54.21
2018-04-27T16:27:06.556Z,52.84
2018-04-27T16:29:32.516Z,52.88
2018-04-27T16:31:58.480Z,53.00
2018-04-27T16:34:24.432Z,53.73
2018-04-27T16:36:50.392Z,53.49
2018-04-27T16:39:16.356Z,53.70
2018-04-27T16:41:42.330Z,52.89
2018-04-27T16:44:08.273Z,53.38
2018-04-27T16:46:34.231Z,53.06
2018-04-27T16:49:00.176Z,53.12
2018-04-27T16:51:26.160Z,53.35
2018-04-27T16:53:52.192Z,53.21
2018-04-27T16:56:18.148Z,53.80
2018-04-27T16:58:44.084Z,53.34
2018-04-27T17:01:10.064Z,53.55
2018-04-27T17:03:36.070Z,53.40
2018-04-27T17:06:01.993Z,53.93
2018-04-27T17:08:27.936Z,53.57
2018-04-27T17:10:53.924Z,54.49
2018-04-27T17:13:19.864Z,53.61
2018-04-27T17:15:45.844Z,53.51
2018-04-27T17:18:11.832Z,53.48
2018-04-27T17:20:37.775Z,53.32
2018-04-27T17:23:03.726Z,53.99
2018-04-27T17:25:29.687Z,53.44
2018-04-27T17:27:55.660Z,53.67
2018-04-27T17:30:21.616Z,53.71
2018-04-27T17:32:47.588Z,53.44
2018-04-27T17:35:13.659Z,53.36
2018-04-27T17:37:39.483Z,53.87
2018-04-27T17:40:05.442Z,54.02
2018-04-27T17:42:31.388Z,53.61
2018-04-27T17:44:57.360Z,53.29
2018-04-27T17:47:23.303Z,52.96
2018-04-27T17:49:49.284Z,54.43
2018-04-27T17:52:15.332Z,53.29
2018-04-27T17:54:41.308Z,53.26
2018-04-27T17:57:07.273Z,52.92
2018-04-27T17:59:33.261Z,53.05
2018-04-27T18:01:59.248Z,52.80
2018-04-27T18:04:25.174Z,53.00
2018-04-27T18:06:51.137Z,56.04
2018-04-27T18:09:17.115Z,53.97
2018-04-27T18:11:43.108Z,53.83
2018-04-27T18:14:09.059Z,54.52
2018-04-27T18:16:35.035Z,53.66
2018-04-27T18:19:00.948Z,54.23
2018-04-27T18:21:26.912Z,53.91
2018-04-27T18:23:52.868Z,53.90
2018-04-27T18:26:18.839Z,54.05
2018-04-27T18:28:44.818Z,53.84
2018-04-27T18:31:10.759Z,53.87
2018-04-27T18:33:36.712Z,53.65
2018-04-27T18:36:02.686Z,54.01
2018-04-27T18:38:28.648Z,53.96
2018-04-27T18:40:54.612Z,54.20
2018-04-27T18:43:20.585Z,53.92
2018-04-27T18:45:46.522Z,54.80
2018-04-27T18:48:12.473Z,54.33
2018-04-27T18:50:38.527Z,54.25
2018-04-27T18:53:04.485Z,54.11
2018-04-27T18:55:30.436Z,54.35
2018-04-27T18:57:56.418Z,54.44
2018-04-27T19:00:22.364Z,53.86
2018-04-27T19:02:48.309Z,54.72
2018-04-27T19:05:14.256Z,54.26
2018-04-27T19:07:40.199Z,53.98
2018-04-27T19:10:06.158Z,54.38
2018-04-27T19:12:32.136Z,54.55
2018-04-27T19:14:58.084Z,55.49
2018-04-27T19:17:24.045Z,54.62
2018-04-27T19:19:50.003Z,54.89
2018-04-27T19:22:15.957Z,55.84
2018-04-27T19:24:41.898Z,55.00
2018-04-27T19:27:07.872Z,55.29
2018-04-27T19:29:33.855Z,55.53
2018-04-27T19:31:59.788Z,55.95
2018-04-27T19:34:25.823Z,55.04
2018-04-27T19:36:51.940Z,54.55
2018-04-27T19:39:17.949Z,55.00
2018-04-27T19:41:44.016Z,55.26
2018-04-27T19:44:10.029Z,54.12
2018-04-27T19:46:36.064Z,54.14
2018-04-27T19:49:02.097Z,53.80
2018-04-27T19:51:28.064Z,54.47
2018-04-27T19:53:54.031Z,53.95
2018-04-27T19:56:20.069Z,54.12
2018-04-27T19:58:46.112Z,53.80
2018-04-27T20:01:12.155Z,54.37
2018-04-27T20:03:38.093Z,53.40
2018-04-27T20:06:04.089Z,54.34
2018-04-27T20:08:30.085Z,54.29
2018-04-27T20:10:56.016Z,53.49
2018-04-27T20:13:21.983Z,53.78
2018-04-27T20:15:48.030Z,53.45
2018-04-27T20:18:13.979Z,53.60
2018-04-27T20:20:39.960Z,53.37
2018-04-27T20:23:05.992Z,53.35
2018-04-27T20:25:32.047Z,53.92
2018-04-27T20:27:57.992Z,54.29
2018-04-27T20:30:23.924Z,53.23
2018-04-27T20:32:49.908Z,53.42
2018-04-27T20:35:15.839Z,53.52
2018-04-27T20:37:41.804Z,54.31
2018-04-27T20:40:07.758Z,53.80
2018-04-27T20:42:33.696Z,53.82
2018-04-27T20:44:59.746Z,53.89
2018-04-27T20:47:25.767Z,53.42
2018-04-27T20:49:51.804Z,53.92
2018-04-27T20:52:17.928Z,53.60
2018-04-27T20:54:43.888Z,53.72
2018-04-27T20:57:09.891Z,53.95
2018-04-27T20:59:35.848Z,53.87
2018-04-27T21:02:01.874Z,54.26
2018-04-27T21:04:27.895Z,53.85
2018-04-27T21:06:53.876Z,53.88
2018-04-27T21:09:19.844Z,53.72
2018-04-27T21:11:45.846Z,53.71
2018-04-27T21:14:11.811Z,54.16
2018-04-27T21:16:37.760Z,55.17
2018-04-27T21:19:03.693Z,54.19
2018-04-27T21:21:29.840Z,54.46
2018-04-27T21:23:55.787Z,54.10
2018-04-27T21:26:21.774Z,54.08
2018-04-27T21:28:47.707Z,54.97
2018-04-27T21:31:13.704Z,54.23
2018-04-27T21:33:39.652Z,54.84
2018-04-27T21:36:05.596Z,54.57
2018-04-27T21:38:31.559Z,54.21
2018-04-27T21:40:57.575Z,54.72
2018-04-27T21:43:23.451Z,54.53
2018-04-27T21:45:49.400Z,54.41
2018-04-27T21:48:15.363Z,54.43
2018-04-27T21:50:41.299Z,54.80
2018-04-27T21:53:07.266Z,54.38
2018-04-27T21:55:33.217Z,54.52
2018-04-27T21:57:59.164Z,54.43
2018-04-27T22:00:25.148Z,54.02
2018-04-27T22:02:51.093Z,54.38
2018-04-27T22:05:17.071Z,54.35
2018-04-27T22:07:43.029Z,54.36
2018-04-27T22:10:08.976Z,54.44
2018-04-27T22:12:34.919Z,54.57
2018-04-27T22:15:00.896Z,53.97
2018-04-27T22:17:26.839Z,54.38
2018-04-27T22:19:52.797Z,54.84
2018-04-27T22:22:18.853Z,54.59
2018-04-27T22:24:44.794Z,54.18
2018-04-27T22:27:10.752Z,54.64
2018-04-27T22:29:36.721Z,54.78
2018-04-27T22:32:02.675Z,55.48
2018-04-27T22:34:28.833Z,54.40
2018-04-27T22:36:54.861Z,54.14
2018-04-27T22:39:20.861Z,54.70
2018-04-27T22:41:46.840Z,55.38
2018-04-27T22:44:12.809Z,54.56
2018-04-27T22:46:38.755Z,54.21
2018-04-27T22:49:04.700Z,54.30
2018-04-27T22:51:30.648Z,54.18
2018-04-27T22:53:56.605Z,54.60
2018-04-27T22:56:22.567Z,54.25
2018-04-27T22:58:48.515Z,54.70
2018-04-27T23:01:14.474Z,54.20
2018-04-27T23:03:40.420Z,54.70
2018-04-27T23:06:06.443Z,55.17
2018-04-27T23:08:32.393Z,54.30
2018-04-27T23:10:58.352Z,54.37
2018-04-27T23:13:24.405Z,54.52
2018-04-27T23:15:50.433Z,54.47
2018-04-27T23:18:16.368Z,55.64
2018-04-27T23:20:42.319Z,54.69
2018-04-27T23:23:08.271Z,54.33
2018-04-27T23:25:34.209Z,54.50
2018-04-27T23:28:00.177Z,54.31
2018-04-27T23:30:26.123Z,54.44
2018-04-27T23:32:52.080Z,54.42
2018-04-27T23:35:18.054Z,54.44
2018-04-27T23:37:44.008Z,54.44
2018-04-27T23:40:09.943Z,54.10
2018-04-27T23:42:35.884Z,54.72
2018-04-27T23:45:01.784Z,54.34
2018-04-27T23:47:27.742Z,54.33
2018-04-27T23:49:53.706Z,54.46
2018-04-27T23:52:19.632Z,55.55
2018-04-27T23:54:45.595Z,54.46
2018-04-27T23:57:11.545Z,55.09
2018-04-27T23:59:37.503Z,54.80
